Time;durP1;ratioP1;P1;durP2;ratioP2;P2;SDS_P1;SDS_P2;PMS_P1;PMS_P2;Temp;Humidity;BMP_temperature;BMP_pressure;BME280_temperature;BME280_humidity;BME280_pressure;Samples;Min_cycle;Max_cycle;Signal;HPM_P1;HPM_P2
2022/06/07 00:01:07;;;;;;;12.87;9.20;;;13.00;99.90;;;;;;5072102;28;20612;-60
2022/06/07 00:03:34;;;;;;;13.77;9.73;;;13.00;99.90;;;;;;5071880;28;20207;-60
2022/06/07 00:06:01;;;;;;;13.23;9.40;;;12.90;99.90;;;;;;5071155;28;20220;-61
2022/06/07 00:08:30;;;;;;;11.40;8.97;;;12.90;99.90;;;;;;5072249;28;20669;-59
2022/06/07 00:10:58;;;;;;;11.90;8.80;;;12.90;99.90;;;;;;5071801;28;20290;-61
2022/06/07 00:13:26;;;;;;;13.90;8.40;;;12.80;99.90;;;;;;5071912;28;20211;-60
2022/06/07 00:15:52;;;;;;;10.90;7.93;;;12.80;99.90;;;;;;5071302;28;20265;-61
2022/06/07 00:18:19;;;;;;;10.93;7.70;;;12.80;99.90;;;;;;5071872;28;20209;-60
2022/06/07 00:20:46;;;;;;;11.67;8.47;;;12.70;99.90;;;;;;5071676;28;20201;-60
2022/06/07 00:23:16;;;;;;;11.70;8.47;;;12.70;99.90;;;;;;5071964;28;20251;-60
2022/06/07 00:25:44;;;;;;;15.37;8.40;;;12.70;99.90;;;;;;5071666;28;20202;-61
2022/06/07 00:28:12;;;;;;;12.20;8.27;;;12.60;99.90;;;;;;5071378;28;20254;-60
2022/06/07 00:30:39;;;;;;;12.90;9.07;;;12.60;99.90;;;;;;5071737;28;20211;-58
2022/06/07 00:33:06;;;;;;;13.97;9.63;;;12.50;99.90;;;;;;5071635;28;20240;-60
2022/06/07 00:35:34;;;;;;;13.00;8.83;;;12.40;99.90;;;;;;5071832;28;20611;-60
2022/06/07 00:38:00;;;;;;;12.20;8.67;;;12.40;99.90;;;;;;5071224;28;20717;-60
2022/06/07 00:40:27;;;;;;;14.40;9.73;;;12.30;99.90;;;;;;5071717;28;20208;-59
2022/06/07 00:42:54;;;;;;;14.90;9.87;;;12.30;99.90;;;;;;5071580;28;20201;-58
2022/06/07 00:45:23;;;;;;;12.77;9.73;;;12.30;99.90;;;;;;5071310;28;20225;-59
2022/06/07 00:47:51;;;;;;;16.83;10.70;;;12.20;99.90;;;;;;5071147;28;20224;-59
2022/06/07 00:50:24;;;;;;;14.73;10.60;;;12.20;99.90;;;;;;5071452;28;20205;-59
2022/06/07 00:52:51;;;;;;;17.33;10.93;;;12.10;99.90;;;;;;5071657;28;20625;-60
2022/06/07 00:55:18;;;;;;;16.73;10.70;;;12.10;99.90;;;;;;5071271;28;20225;-58
2022/06/07 00:57:45;;;;;;;17.63;11.03;;;12.00;99.90;;;;;;5071045;28;20736;-56
2022/06/07 01:00:15;;;;;;;16.70;11.13;;;11.90;99.90;;;;;;5071460;28;20266;-60
2022/06/07 01:02:43;;;;;;;16.47;11.17;;;11.90;99.90;;;;;;5071632;28;20190;-58
2022/06/07 01:05:10;;;;;;;18.73;11.30;;;11.90;99.90;;;;;;5071357;28;20229;-60
2022/06/07 01:13:05;;;;;;;16.77;10.00;;;11.90;99.90;;;;;;5071196;28;20578;-58
2022/06/07 01:15:32;;;;;;;14.60;10.47;;;11.90;99.90;;;;;;5071046;28;20232;-59
2022/06/07 01:18:01;;;;;;;16.73;10.80;;;11.90;99.90;;;;;;5072720;28;20205;-59
2022/06/07 01:20:29;;;;;;;14.33;9.77;;;11.90;99.90;;;;;;5074995;28;20259;-59
2022/06/07 01:22:57;;;;;;;14.03;9.87;;;11.80;99.90;;;;;;5074716;28;20207;-56
2022/06/07 01:25:24;;;;;;;18.70;10.13;;;11.80;99.90;;;;;;5075022;28;20228;-59
2022/06/07 01:27:51;;;;;;;15.43;9.93;;;11.80;99.90;;;;;;5074404;28;20229;-58
2022/06/07 01:30:18;;;;;;;15.13;9.17;;;11.90;99.90;;;;;;5074778;28;20205;-58
2022/06/07 01:32:44;;;;;;;12.63;9.03;;;11.90;99.90;;;;;;5074927;28;20623;-58
2022/06/07 01:35:11;;;;;;;11.43;8.80;;;11.90;99.90;;;;;;5074374;28;20255;-57
2022/06/07 01:37:38;;;;;;;11.73;8.23;;;11.90;99.90;;;;;;5074382;28;20809;-60
2022/06/07 01:42:51;;;;;;;14.17;8.87;;;11.90;99.90;;;;;;5074610;28;20777;-60
2022/06/07 01:45:18;;;;;;;10.57;8.50;;;11.80;99.90;;;;;;5074471;28;20722;-60
2022/06/07 01:47:45;;;;;;;10.73;7.73;;;11.80;99.90;;;;;;5074060;28;20229;-60
2022/06/07 01:50:12;;;;;;;17.53;8.23;;;11.80;99.90;;;;;;5074434;28;20217;-60
2022/06/07 01:52:38;;;;;;;11.60;7.77;;;11.80;99.90;;;;;;5074702;28;20292;-60
2022/06/07 01:55:08;;;;;;;9.13;7.40;;;11.80;99.90;;;;;;5074122;28;20270;-60
2022/06/07 01:57:35;;;;;;;11.27;7.53;;;11.80;99.90;;;;;;5074453;28;20201;-60
2022/06/07 02:00:04;;;;;;;12.23;7.50;;;11.80;99.90;;;;;;5074561;28;20620;-60
2022/06/07 02:02:31;;;;;;;12.60;7.07;;;11.80;99.90;;;;;;5073887;28;20224;-60
2022/06/07 02:04:58;;;;;;;12.43;7.70;;;11.80;99.90;;;;;;5074180;28;20232;-60
2022/06/07 02:07:25;;;;;;;12.53;6.90;;;11.80;99.90;;;;;;5073519;28;20711;-60
2022/06/07 02:09:52;;;;;;;9.13;6.90;;;11.80;99.90;;;;;;5074284;28;20740;-60
2022/06/07 02:12:20;;;;;;;9.60;6.13;;;11.80;99.90;;;;;;5073816;28;20703;-60
2022/06/07 02:14:47;;;;;;;10.23;6.73;;;11.80;99.90;;;;;;5073752;28;20220;-60
2022/06/07 02:17:15;;;;;;;7.77;5.73;;;11.80;99.90;;;;;;5073751;28;20205;-60
2022/06/07 02:19:44;;;;;;;9.03;6.33;;;11.80;99.90;;;;;;5074063;28;20582;-60
2022/06/07 02:22:10;;;;;;;11.00;6.30;;;11.80;99.90;;;;;;5073803;28;20671;-60
2022/06/07 02:24:37;;;;;;;8.47;6.23;;;11.80;99.90;;;;;;5073661;28;20297;-61
2022/06/07 02:27:07;;;;;;;6.97;5.93;;;11.80;99.90;;;;;;5073471;28;20295;-60
2022/06/07 02:29:39;;;;;;;9.60;6.03;;;11.80;99.90;;;;;;5073522;28;20209;-60
2022/06/07 02:32:10;;;;;;;10.17;5.60;;;11.80;99.90;;;;;;5073768;28;20763;-60
2022/06/07 02:34:38;;;;;;;6.90;5.73;;;11.80;99.90;;;;;;5073688;28;20225;-58
2022/06/07 02:37:07;;;;;;;6.80;5.20;;;11.80;99.90;;;;;;5073340;28;20208;-58
2022/06/07 02:39:36;;;;;;;6.27;4.93;;;11.80;99.90;;;;;;5073527;28;20231;-58
2022/06/07 02:42:05;;;;;;;6.27;4.90;;;11.70;99.90;;;;;;5073289;28;20291;-59
2022/06/07 02:44:32;;;;;;;6.07;4.40;;;11.80;99.90;;;;;;5073597;28;20276;-59
2022/06/07 02:47:00;;;;;;;9.13;5.00;;;11.70;99.90;;;;;;5072912;28;20323;-60
2022/06/07 02:49:27;;;;;;;7.63;5.20;;;11.70;99.90;;;;;;5073401;28;20602;-60
2022/06/07 02:51:53;;;;;;;5.67;4.67;;;11.70;99.90;;;;;;5073227;28;20254;-57
2022/06/07 02:54:20;;;;;;;8.13;4.77;;;11.80;99.90;;;;;;5073116;28;20280;-60
2022/06/07 02:56:46;;;;;;;7.33;4.57;;;11.80;99.90;;;;;;5072930;28;20239;-60
2022/06/07 02:59:13;;;;;;;8.90;4.90;;;11.80;99.90;;;;;;5073388;28;20212;-59
2022/06/07 03:01:40;;;;;;;6.53;4.60;;;11.80;99.90;;;;;;5073257;28;20209;-60
2022/06/07 03:04:08;;;;;;;6.40;4.63;;;11.80;99.90;;;;;;5072857;28;20279;-60
2022/06/07 03:06:34;;;;;;;5.63;4.17;;;11.80;99.90;;;;;;5072623;28;20738;-60
2022/06/07 03:09:01;;;;;;;6.03;4.43;;;11.80;99.90;;;;;;5072507;28;20675;-60
2022/06/07 03:11:28;;;;;;;5.37;3.73;;;11.80;99.90;;;;;;5073105;28;20205;-59
2022/06/07 03:13:55;;;;;;;4.93;4.33;;;11.80;99.90;;;;;;5072728;28;20605;-58
2022/06/07 03:16:22;;;;;;;7.80;3.83;;;11.80;99.90;;;;;;5072538;28;20242;-59
2022/06/07 03:18:48;;;;;;;6.60;4.00;;;11.80;99.90;;;;;;5072548;28;20205;-58
2022/06/07 03:21:16;;;;;;;6.97;4.53;;;11.80;99.90;;;;;;5072683;28;20661;-60
2022/06/07 03:23:43;;;;;;;6.37;4.13;;;11.90;99.90;;;;;;5072446;28;20229;-60
2022/06/07 03:26:12;;;;;;;5.70;4.13;;;11.80;99.90;;;;;;5072316;28;20255;-59
2022/06/07 03:28:38;;;;;;;4.93;3.87;;;11.80;99.90;;;;;;5072697;28;20266;-57
2022/06/07 03:31:07;;;;;;;5.43;3.80;;;11.80;99.90;;;;;;5072463;28;20258;-59
2022/06/07 03:33:34;;;;;;;5.03;3.50;;;11.90;99.90;;;;;;5072489;28;20213;-60
2022/06/07 03:36:07;;;;;;;5.60;3.10;;;11.80;99.90;;;;;;5071819;28;20209;-61
2022/06/07 03:38:35;;;;;;;4.60;3.70;;;11.90;99.90;;;;;;5072520;28;20227;-59
2022/06/07 03:41:02;;;;;;;6.83;3.33;;;11.90;99.90;;;;;;5071570;28;20341;-60
2022/06/07 03:43:28;;;;;;;4.67;3.50;;;11.90;99.90;;;;;;5072306;28;20201;-57
2022/06/07 03:45:55;;;;;;;5.83;3.17;;;11.90;99.90;;;;;;5072047;28;20267;-59
2022/06/07 03:48:23;;;;;;;7.30;3.50;;;11.90;99.90;;;;;;5072050;28;20225;-58
2022/06/07 03:50:49;;;;;;;6.10;3.77;;;11.90;99.90;;;;;;5072228;28;20213;-60
2022/06/07 03:53:16;;;;;;;4.20;3.30;;;12.00;99.90;;;;;;5072304;28;20295;-58
2022/06/07 03:55:47;;;;;;;7.00;3.50;;;11.90;99.90;;;;;;5072085;28;20209;-58
2022/06/07 03:58:14;;;;;;;6.60;3.33;;;12.00;99.90;;;;;;5072016;28;20201;-60
2022/06/07 04:00:41;;;;;;;6.10;3.37;;;12.00;99.90;;;;;;5072690;28;20205;-60
2022/06/07 04:03:08;;;;;;;7.27;3.10;;;12.00;99.90;;;;;;5072519;28;20212;-60
2022/06/07 04:05:40;;;;;;;5.60;3.30;;;12.00;99.90;;;;;;5072182;28;20276;-59
2022/06/07 04:08:13;;;;;;;7.07;3.40;;;12.10;99.90;;;;;;5071777;28;20232;-60
2022/06/07 04:10:47;;;;;;;5.00;3.00;;;12.10;99.90;;;;;;5071993;28;20809;-60
2022/06/07 04:13:14;;;;;;;3.63;2.60;;;12.10;99.90;;;;;;5071989;28;20210;-59
2022/06/07 04:15:41;;;;;;;6.03;3.07;;;12.20;99.90;;;;;;5071427;28;20283;-60
2022/06/07 04:18:07;;;;;;;5.03;3.10;;;12.20;99.90;;;;;;5071605;28;20200;-61
2022/06/07 04:20:34;;;;;;;4.93;2.70;;;12.20;99.90;;;;;;5071624;28;20209;-61
2022/06/07 04:23:01;;;;;;;4.67;2.77;;;12.30;99.90;;;;;;5071905;28;20251;-61
2022/06/07 04:25:29;;;;;;;4.67;3.03;;;12.30;99.90;;;;;;5071688;28;20232;-62
2022/06/07 04:27:57;;;;;;;5.03;2.63;;;12.30;99.90;;;;;;5071096;28;20274;-61
2022/06/07 04:30:23;;;;;;;6.57;2.80;;;12.40;99.90;;;;;;5071947;28;20209;-71
2022/06/07 04:32:50;;;;;;;6.57;3.13;;;12.50;99.90;;;;;;5069926;28;20213;-62
2022/06/07 04:35:18;;;;;;;3.97;3.00;;;12.50;99.90;;;;;;5070683;28;20658;-62
2022/06/07 04:37:46;;;;;;;6.60;2.70;;;12.60;99.90;;;;;;5070660;28;20201;-62
2022/06/07 04:40:13;;;;;;;6.43;2.70;;;12.70;99.90;;;;;;5071390;28;20209;-61
2022/06/07 04:42:39;;;;;;;5.60;3.30;;;12.70;99.90;;;;;;5071235;28;20263;-62
2022/06/07 04:45:11;;;;;;;3.70;2.70;;;12.80;99.90;;;;;;5071294;28;20235;-62
2022/06/07 04:47:38;;;;;;;3.30;2.50;;;12.80;99.90;;;;;;5071241;28;20240;-62
2022/06/07 04:50:06;;;;;;;4.23;2.53;;;12.80;99.90;;;;;;5071099;28;20209;-62
2022/06/07 04:52:33;;;;;;;3.33;2.60;;;12.90;99.90;;;;;;5074219;28;20205;-62
2022/06/07 04:55:00;;;;;;;3.93;2.43;;;13.00;99.90;;;;;;5075116;28;20302;-62
2022/06/07 04:57:26;;;;;;;6.20;2.73;;;13.10;99.90;;;;;;5074906;28;20728;-61
2022/06/07 04:59:53;;;;;;;5.27;2.60;;;13.20;99.90;;;;;;5075583;28;20213;-62
2022/06/07 05:02:21;;;;;;;3.33;2.70;;;13.30;99.90;;;;;;5075148;28;20212;-62
2022/06/07 05:04:48;;;;;;;4.10;2.70;;;13.40;99.90;;;;;;5075141;28;20231;-62
2022/06/07 05:07:15;;;;;;;3.13;2.10;;;13.40;99.90;;;;;;5074507;28;20253;-62
2022/06/07 05:09:42;;;;;;;4.67;2.47;;;13.50;99.90;;;;;;5075037;28;20215;-61
2022/06/07 05:12:09;;;;;;;2.97;2.50;;;13.50;99.90;;;;;;5074796;28;20284;-60
2022/06/07 05:14:36;;;;;;;5.10;2.27;;;13.60;99.90;;;;;;5074880;28;20274;-61
2022/06/07 05:17:04;;;;;;;5.57;2.70;;;13.80;99.90;;;;;;5074721;28;20213;-61
2022/06/07 05:19:33;;;;;;;2.47;2.00;;;13.90;99.90;;;;;;5074768;28;20206;-61
2022/06/07 05:21:59;;;;;;;8.63;2.60;;;13.90;99.90;;;;;;5075085;28;20254;-66
2022/06/07 05:24:26;;;;;;;6.40;2.10;;;14.00;99.90;;;;;;5065842;28;20224;-64
2022/06/07 05:26:57;;;;;;;5.57;2.30;;;14.00;99.90;;;;;;5073572;28;20662;-64
2022/06/07 05:29:27;;;;;;;4.97;2.40;;;14.10;98.90;;;;;;5074128;28;20235;-64
2022/06/07 05:31:54;;;;;;;4.83;2.20;;;14.10;98.60;;;;;;5075058;28;20257;-64
2022/06/07 05:34:21;;;;;;;5.83;2.27;;;14.20;88.00;;;;;;5073930;28;20277;-64
2022/06/07 05:36:49;;;;;;;7.13;2.40;;;14.20;95.50;;;;;;5073060;28;20211;-64
2022/06/07 05:39:20;;;;;;;9.33;4.00;;;14.20;91.90;;;;;;5073921;28;20208;-64
2022/06/07 05:41:47;;;;;;;4.20;2.73;;;14.30;65.80;;;;;;5073712;28;20331;-64
2022/06/07 05:44:40;;;;;;;4.37;2.23;;;14.40;67.70;;;;;;5074154;28;20274;-64
2022/06/07 05:47:08;;;;;;;5.63;2.83;;;14.40;55.80;;;;;;5067254;28;20235;-68
2022/06/07 05:49:35;;;;;;;4.03;1.97;;;14.50;48.20;;;;;;5073656;28;20713;-65
2022/06/07 05:52:04;;;;;;;3.53;2.03;;;14.60;44.90;;;;;;5074034;28;20205;-65
2022/06/07 05:54:33;;;;;;;2.10;1.90;;;14.70;45.30;;;;;;5073714;28;20281;-64
2022/06/07 05:56:59;;;;;;;2.40;1.77;;;14.70;42.80;;;;;;5073341;28;20262;-64
2022/06/07 05:59:26;;;;;;;4.83;2.00;;;14.80;35.30;;;;;;5073633;28;20209;-66
2022/06/07 06:01:53;;;;;;;3.53;1.93;;;14.80;20.50;;;;;;5073511;28;20254;-70
2022/06/07 06:04:20;;;;;;;2.70;1.90;;;14.80;20.80;;;;;;5072501;28;20331;-63
2022/06/07 06:06:47;;;;;;;3.03;2.00;;;14.80;15.70;;;;;;5073123;28;20209;-64
2022/06/07 06:11:59;;;;;;;3.70;2.13;;;14.90;24.30;;;;;;5072866;28;20200;-64
2022/06/07 06:14:26;;;;;;;6.73;1.97;;;14.90;24.30;;;;;;5073373;28;20221;-67
2022/06/07 06:16:53;;;;;;;3.23;2.10;;;15.00;23.30;;;;;;5072367;28;20633;-69
2022/06/07 06:19:20;;;;;;;3.00;1.67;;;15.00;19.00;;;;;;5073329;28;20198;-67
2022/06/07 06:21:48;;;;;;;5.17;2.40;;;15.10;19.00;;;;;;5073449;28;20295;-66
2022/06/07 06:24:17;;;;;;;2.63;1.73;;;15.10;8.30;;;;;;5072814;28;20229;-66
2022/06/07 06:26:44;;;;;;;4.23;2.00;;;15.10;3.40;;;;;;5072455;28;20219;-66
2022/06/07 06:29:11;;;;;;;2.50;1.90;;;15.20;1.00;;;;;;5072690;28;20229;-67
2022/06/07 06:31:40;;;;;;;2.40;1.60;;;15.20;1.00;;;;;;5073466;28;20201;-67
2022/06/07 06:34:07;;;;;;;5.03;1.93;;;15.20;1.00;;;;;;5073079;28;20259;-65
2022/06/07 06:36:34;;;;;;;4.70;2.00;;;15.10;1.00;;;;;;5072321;28;20205;-68
2022/06/07 06:39:01;;;;;;;2.70;2.00;;;15.00;1.00;;;;;;5073241;28;20197;-66
2022/06/07 06:41:31;;;;;;;4.83;1.83;;;15.00;1.00;;;;;;5072477;28;20242;-67
2022/06/07 06:44:01;;;;;;;3.73;1.73;;;15.10;1.00;;;;;;5072734;28;20707;-65
2022/06/07 06:46:30;;;;;;;7.17;2.50;;;15.10;1.00;;;;;;5072121;28;20296;-66
2022/06/07 06:48:57;;;;;;;2.80;1.90;;;15.20;1.00;;;;;;5073022;28;20224;-66
2022/06/07 06:51:27;;;;;;;2.80;1.80;;;15.20;1.00;;;;;;5072785;28;20235;-65
2022/06/07 06:53:57;;;;;;;4.57;1.70;;;15.30;1.00;;;;;;5071951;28;20221;-68
2022/06/07 06:56:24;;;;;;;3.10;2.00;;;15.50;1.00;;;;;;5072772;28;20205;-65
2022/06/07 06:58:52;;;;;;;3.00;1.70;;;15.60;99.90;;;;;;5072461;28;20201;-65
2022/06/07 07:01:22;;;;;;;3.33;1.90;;;15.70;99.90;;;;;;5072752;28;20617;-66
2022/06/07 07:03:50;;;;;;;3.37;1.50;;;15.90;99.90;;;;;;5072496;28;20260;-66
2022/06/07 07:06:17;;;;;;;3.83;1.50;;;16.00;1.00;;;;;;5071725;28;20675;-65
2022/06/07 07:08:45;;;;;;;5.63;1.93;;;16.20;1.00;;;;;;5072477;28;20225;-66
2022/06/07 07:11:15;;;;;;;3.43;1.60;;;16.40;99.90;;;;;;5072129;28;20266;-63
2022/06/07 07:13:42;;;;;;;3.83;1.40;;;16.50;99.90;;;;;;5072298;28;20646;-63
2022/06/07 07:16:13;;;;;;;2.77;1.50;;;16.50;99.90;;;;;;5071119;28;20218;-67
2022/06/07 07:18:40;;;;;;;6.13;1.77;;;16.60;99.90;;;;;;5072234;28;20211;-64
2022/06/07 07:21:09;;;;;;;5.40;2.50;;;16.80;1.00;;;;;;5071865;28;20205;-65
2022/06/07 07:23:38;;;;;;;3.63;1.93;;;16.80;1.00;;;;;;5071864;28;20212;-66
2022/06/07 07:26:06;;;;;;;2.67;1.50;;;17.00;99.90;;;;;;5071757;28;20266;-67
2022/06/07 07:28:34;;;;;;;4.13;1.30;;;17.00;99.90;;;;;;5071873;28;20923;-67
2022/06/07 07:31:04;;;;;;;4.70;1.40;;;17.10;99.90;;;;;;5072086;28;20292;-76
2022/06/07 07:33:33;;;;;;;4.87;1.63;;;17.30;1.00;;;;;;5071903;28;20212;-65
2022/06/07 07:36:02;;;;;;;2.20;1.30;;;17.50;99.90;;;;;;5071127;28;20578;-65
2022/06/07 07:38:28;;;;;;;5.17;1.47;;;17.60;99.90;;;;;;5072126;28;20227;-64
2022/06/07 07:40:55;;;;;;;4.20;1.53;;;17.70;99.90;;;;;;5071411;28;20278;-64
2022/06/07 07:43:21;;;;;;;3.20;1.30;;;17.80;1.00;;;;;;5071937;28;20213;-65
2022/06/07 07:45:52;;;;;;;1.70;1.20;;;17.70;1.00;;;;;;5071677;28;20255;-67
2022/06/07 07:48:19;;;;;;;1.70;1.10;;;17.90;1.00;;;;;;5071498;28;20217;-66
2022/06/07 07:50:48;;;;;;;5.20;1.03;;;18.00;1.00;;;;;;5071995;28;20211;-68
2022/06/07 07:53:15;;;;;;;3.37;1.20;;;18.10;1.00;;;;;;5071484;28;20782;-67
2022/06/07 07:55:46;;;;;;;3.00;1.57;;;18.20;1.00;;;;;;5071532;28;20229;-66
2022/06/07 07:58:14;;;;;;;2.83;1.37;;;18.20;1.00;;;;;;5070806;28;20735;-68
2022/06/07 08:00:42;;;;;;;2.13;1.30;;;18.40;1.00;;;;;;5071525;28;20266;-66
2022/06/07 08:03:09;;;;;;;3.33;1.33;;;18.50;1.00;;;;;;5071704;28;20631;-67
2022/06/07 08:05:36;;;;;;;2.87;1.30;;;18.60;99.90;;;;;;5071314;28;20225;-66
2022/06/07 08:08:05;;;;;;;4.23;1.30;;;18.80;99.90;;;;;;5071251;28;20629;-65
2022/06/07 08:10:32;;;;;;;6.97;1.30;;;19.00;99.90;;;;;;5071384;28;20205;-67
2022/06/07 08:12:59;;;;;;;2.67;1.40;;;19.20;1.00;;;;;;5071429;28;20205;-65
2022/06/07 08:15:29;;;;;;;4.60;1.50;;;19.30;99.90;;;;;;5071154;28;20240;-65
2022/06/07 08:17:57;;;;;;;2.93;1.47;;;19.40;99.90;;;;;;5070993;28;20623;-66
2022/06/07 08:20:24;;;;;;;3.20;1.30;;;19.40;99.90;;;;;;5071761;28;20205;-63
2022/06/07 08:22:51;;;;;;;4.93;1.43;;;19.20;99.90;;;;;;5071214;28;20625;-63
2022/06/07 08:25:19;;;;;;;1.93;1.27;;;18.90;99.90;;;;;;5071092;28;20278;-62
2022/06/07 08:27:46;;;;;;;3.10;1.40;;;19.00;1.00;;;;;;5070867;28;20209;-63
2022/06/07 08:30:14;;;;;;;2.30;1.10;;;19.00;99.90;;;;;;5071438;28;20266;-63
2022/06/07 08:32:41;;;;;;;3.40;1.63;;;19.00;99.90;;;;;;5071588;28;20608;-63
2022/06/07 08:37:56;;;;;;;1.67;1.30;;;18.90;99.90;;;;;;5070420;28;20258;-61
2022/06/07 08:40:33;;;;;;;2.57;1.03;;;18.80;99.90;;;;;;5070573;28;20205;-63
2022/06/07 08:43:02;;;;;;;6.47;1.40;;;18.70;99.90;;;;;;5071435;28;20208;-65
2022/06/07 08:45:32;;;;;;;6.80;1.40;;;18.80;1.00;;;;;;5070911;28;20225;-65
2022/06/07 08:48:01;;;;;;;2.80;1.10;;;18.80;99.90;;;;;;5070685;28;20295;-61
2022/06/07 08:50:32;;;;;;;2.07;1.10;;;18.70;99.90;;;;;;5070942;28;20225;-64
2022/06/07 08:53:03;;;;;;;4.17;1.43;;;18.60;99.90;;;;;;5070855;28;20194;-63
2022/06/07 08:55:37;;;;;;;3.60;1.33;;;18.60;99.90;;;;;;5070697;28;20228;-65
2022/06/07 08:58:16;;;;;;;1.93;1.20;;;18.80;99.90;;;;;;5070784;28;20213;-64
2022/06/07 09:00:48;;;;;;;3.30;1.63;;;19.10;99.90;;;;;;5071111;28;20667;-64
2022/06/07 09:03:33;;;;;;;2.87;1.20;;;19.30;99.90;;;;;;5070741;28;20235;-64
2022/06/07 09:06:03;;;;;;;2.47;1.40;;;19.70;99.90;;;;;;5069975;28;20428;-65
2022/06/07 09:08:43;;;;;;;1.77;1.20;;;19.80;99.90;;;;;;5070994;28;20231;-64
2022/06/07 09:14:05;;;;;;;3.97;1.57;;;19.80;99.90;;;;;;5070674;28;20613;-62
2022/06/07 09:16:38;;;;;;;3.53;1.20;;;19.60;99.90;;;;;;5069828;28;20315;-63
2022/06/07 09:19:10;;;;;;;3.13;1.60;;;19.50;99.90;;;;;;5071169;28;20205;-62
2022/06/07 09:21:41;;;;;;;1.97;1.30;;;19.50;99.90;;;;;;5070807;28;20240;-63
2022/06/07 09:24:13;;;;;;;2.10;1.10;;;19.70;99.90;;;;;;5070186;28;20252;-63
2022/06/07 09:26:42;;;;;;;2.10;1.40;;;20.00;99.90;;;;;;5070405;28;20217;-62
2022/06/07 09:29:18;;;;;;;2.43;1.20;;;20.10;99.90;;;;;;5070328;28;20233;-61
2022/06/07 09:31:46;;;;;;;1.97;1.33;;;20.10;99.90;;;;;;5070692;28;20251;-60
2022/06/07 09:34:21;;;;;;;3.93;1.70;;;20.10;99.90;;;;;;5070203;28;20268;-64
2022/06/07 09:36:55;;;;;;;4.67;1.30;;;20.10;99.90;;;;;;5070100;28;20795;-66
2022/06/07 09:39:27;;;;;;;3.47;1.33;;;19.80;99.90;;;;;;5072615;28;20287;-65
2022/06/07 09:42:02;;;;;;;4.50;1.73;;;19.70;99.90;;;;;;5074229;28;20223;-66
2022/06/07 09:44:31;;;;;;;4.30;1.50;;;19.70;99.90;;;;;;5073987;28;20224;-64
2022/06/07 09:47:01;;;;;;;2.33;1.23;;;19.60;99.90;;;;;;5073408;28;20597;-64
2022/06/07 09:49:32;;;;;;;4.03;1.40;;;19.50;99.90;;;;;;5074275;28;20247;-64
2022/06/07 09:52:12;;;;;;;6.97;1.50;;;19.60;99.90;;;;;;5073529;28;20338;-63
2022/06/07 09:54:41;;;;;;;2.43;1.27;;;19.60;99.90;;;;;;5073797;28;20228;-62
2022/06/07 09:57:21;;;;;;;2.87;1.47;;;19.50;99.90;;;;;;5073475;28;20240;-62
2022/06/07 10:00:06;;;;;;;3.60;1.47;;;19.60;99.90;;;;;;5073823;28;20208;-64
2022/06/07 10:02:55;;;;;;;4.03;1.50;;;19.80;99.90;;;;;;5073796;28;20728;-66
2022/06/07 10:05:26;;;;;;;5.00;1.50;;;20.10;99.90;;;;;;5073250;28;20579;-64
2022/06/07 10:08:00;;;;;;;4.00;1.30;;;20.30;99.90;;;;;;5073585;28;20209;-64
2022/06/07 10:10:38;;;;;;;1.97;1.20;;;20.10;99.90;;;;;;5073510;28;20226;-63
2022/06/07 10:13:22;;;;;;;4.50;1.77;;;20.10;99.90;;;;;;5073639;28;20207;-63
2022/06/07 10:15:58;;;;;;;3.67;1.53;;;20.00;99.90;;;;;;5073230;28;20220;-63
2022/06/07 10:18:38;;;;;;;5.30;1.60;;;19.90;99.90;;;;;;5073700;28;20292;-64
2022/06/07 10:21:25;;;;;;;3.37;1.40;;;19.90;99.90;;;;;;5074223;28;20200;-65
2022/06/07 10:24:09;;;;;;;3.40;1.43;;;19.90;99.90;;;;;;5073109;28;20707;-65
2022/06/07 10:26:46;;;;;;;5.10;1.40;;;20.00;99.90;;;;;;5072493;28;20278;-65
2022/06/07 10:29:23;;;;;;;1.90;1.50;;;20.20;99.90;;;;;;5072941;28;20655;-63
2022/06/07 10:31:56;;;;;;;2.17;1.27;;;20.50;99.90;;;;;;5073347;28;20647;-63
2022/06/07 10:34:34;;;;;;;3.23;1.57;;;20.50;99.90;;;;;;5073204;28;20590;-65
2022/06/07 10:37:17;;;;;;;4.90;1.20;;;20.40;99.90;;;;;;5072659;28;20205;-64
2022/06/07 10:40:02;;;;;;;2.23;1.50;;;20.10;99.90;;;;;;5072947;28;20204;-63
2022/06/07 10:42:37;;;;;;;3.33;1.27;;;20.10;99.90;;;;;;5072697;28;20259;-64
2022/06/07 10:45:15;;;;;;;4.03;1.40;;;20.50;99.90;;;;;;5072807;28;20944;-64
2022/06/07 10:47:52;;;;;;;4.10;1.37;;;20.70;99.90;;;;;;5071873;28;20744;-64
2022/06/07 10:50:22;;;;;;;2.30;1.00;;;20.60;99.90;;;;;;5072412;28;20224;-64
2022/06/07 10:52:59;;;;;;;2.57;1.27;;;20.90;99.90;;;;;;5072506;28;20205;-62
2022/06/07 10:55:37;;;;;;;1.70;1.17;;;21.00;99.90;;;;;;5072471;28;20247;-62
2022/06/07 10:58:24;;;;;;;3.20;1.20;;;21.20;99.90;;;;;;5072106;28;20243;-64
2022/06/07 11:00:57;;;;;;;1.30;1.00;;;21.50;99.90;;;;;;5072642;28;20211;-60
2022/06/07 11:03:32;;;;;;;4.17;1.20;;;21.50;99.90;;;;;;5072861;28;20741;-62
2022/06/07 11:09:20;;;;;;;2.80;1.30;;;21.30;99.90;;;;;;5071721;28;20603;-64
2022/06/07 11:11:48;;;;;;;2.37;1.17;;;21.30;99.90;;;;;;5071543;28;20240;-64
2022/06/07 11:14:27;;;;;;;1.27;1.00;;;21.40;99.90;;;;;;5072083;28;20236;-64
2022/06/07 11:17:07;;;;;;;2.80;1.40;;;21.70;99.90;;;;;;5071761;28;20212;-65
2022/06/07 11:19:34;;;;;;;7.47;3.00;;;21.80;99.90;;;;;;5072219;28;20292;-65
2022/06/07 11:22:05;;;;;;;7.93;3.43;;;21.80;99.90;;;;;;5072136;28;20212;-64
2022/06/07 11:24:34;;;;;;;4.10;1.60;;;21.60;99.90;;;;;;5071865;28;20251;-64
2022/06/07 11:27:21;;;;;;;4.87;3.03;;;21.40;99.90;;;;;;5071301;28;20204;-64
2022/06/07 11:29:48;;;;;;;2.70;1.23;;;21.30;99.90;;;;;;5071788;28;20300;-64
2022/06/07 11:32:42;;;;;;;3.60;1.27;;;21.30;99.90;;;;;;5071774;28;20205;-65
2022/06/07 11:35:51;;;;;;;2.57;1.00;;;21.30;99.90;;;;;;5071107;28;20294;-63
2022/06/07 11:38:33;;;;;;;2.13;1.40;;;21.00;99.90;;;;;;5071906;28;20747;-63
2022/06/07 11:41:38;;;;;;;5.70;1.20;;;21.00;99.90;;;;;;5071616;28;20648;-68
2022/06/07 11:44:35;;;;;;;2.63;1.50;;;21.30;99.90;;;;;;5070579;28;20286;-66
2022/06/07 11:47:22;;;;;;;3.83;1.43;;;21.80;99.90;;;;;;5069303;28;20245;-65
2022/06/07 11:50:12;;;;;;;3.13;1.57;;;22.20;99.90;;;;;;5071402;28;20224;-66
2022/06/07 11:52:56;;;;;;;2.37;1.30;;;22.00;99.90;;;;;;5071472;28;20257;-65
2022/06/07 11:55:26;;;;;;;1.93;1.10;;;21.60;99.90;;;;;;5071464;28;20232;-63
2022/06/07 11:58:03;;;;;;;4.43;1.50;;;21.80;99.90;;;;;;5070907;28;20254;-64
2022/06/07 12:00:50;;;;;;;1.83;1.33;;;21.70;99.90;;;;;;5070515;28;20304;-63
2022/06/07 12:03:40;;;;;;;3.13;1.10;;;21.70;99.90;;;;;;5071467;28;20292;-64
2022/06/07 12:06:22;;;;;;;5.23;1.10;;;21.90;99.90;;;;;;5060022;28;20208;-63
2022/06/07 12:09:05;;;;;;;2.63;1.10;;;21.90;99.90;;;;;;5071278;28;20232;-64
2022/06/07 12:11:44;;;;;;;5.47;1.00;;;21.70;99.90;;;;;;5071153;28;20260;-63
2022/06/07 12:14:26;;;;;;;2.00;0.90;;;21.80;99.90;;;;;;5071158;28;20256;-65
2022/06/07 12:16:57;;;;;;;4.10;1.17;;;21.50;99.90;;;;;;5070011;28;20574;-63
2022/06/07 12:19:26;;;;;;;1.80;1.13;;;21.20;99.90;;;;;;5071494;28;20209;-65
2022/06/07 12:21:58;;;;;;;3.80;1.30;;;21.40;99.90;;;;;;5071226;28;20209;-64
2022/06/07 12:24:25;;;;;;;4.63;1.40;;;21.40;99.90;;;;;;5070889;28;20719;-64
2022/06/07 12:26:52;;;;;;;1.40;0.90;;;21.50;99.90;;;;;;5070917;28;20209;-62
2022/06/07 12:29:23;;;;;;;2.80;1.33;;;21.50;99.90;;;;;;5070880;28;20637;-62
2022/06/07 12:31:51;;;;;;;2.43;1.30;;;21.50;99.90;;;;;;5071786;28;20204;-62
2022/06/07 12:34:21;;;;;;;4.40;1.20;;;21.30;99.90;;;;;;5070849;28;20608;-63
2022/06/07 12:36:53;;;;;;;1.83;1.00;;;21.40;99.90;;;;;;5070261;28;20683;-63
2022/06/07 12:39:20;;;;;;;2.60;1.13;;;21.30;99.90;;;;;;5071152;28;20619;-63
2022/06/07 12:41:53;;;;;;;2.30;1.20;;;21.10;99.90;;;;;;5070709;28;20208;-63
2022/06/07 12:44:27;;;;;;;1.60;1.00;;;21.00;99.90;;;;;;5070891;28;20720;-63
2022/06/07 12:46:56;;;;;;;2.77;1.30;;;20.90;99.90;;;;;;5070321;28;20212;-63
2022/06/07 12:49:27;;;;;;;2.50;1.20;;;20.90;99.90;;;;;;5071263;28;20209;-63
2022/06/07 12:51:57;;;;;;;1.13;1.03;;;20.70;99.90;;;;;;5071079;28;20251;-63
2022/06/07 12:54:24;;;;;;;3.03;1.40;;;20.60;99.90;;;;;;5071075;28;20221;-63
2022/06/07 12:56:53;;;;;;;2.47;1.13;;;20.30;99.90;;;;;;5070808;28;20213;-63
2022/06/07 12:59:25;;;;;;;2.37;1.40;;;20.20;99.90;;;;;;5072203;28;20209;-63
2022/06/07 13:01:52;;;;;;;2.40;1.67;;;19.80;99.90;;;;;;5072593;28;20973;-64
2022/06/07 13:04:26;;;;;;;2.63;1.60;;;19.80;99.90;;;;;;5072561;28;20221;-65
2022/06/07 13:07:16;;;;;;;4.13;1.63;;;19.80;99.90;;;;;;5072064;28;20224;-64
2022/06/07 13:09:45;;;;;;;2.43;1.80;;;19.80;99.90;;;;;;5071637;28;20237;-64
2022/06/07 13:12:19;;;;;;;3.37;1.60;;;20.00;99.90;;;;;;5071211;28;20281;-64
2022/06/07 13:14:45;;;;;;;7.67;4.47;;;19.80;99.90;;;;;;5074457;28;20229;-64
2022/06/07 13:17:15;;;;;;;3.70;2.10;;;19.80;99.90;;;;;;5073685;28;20211;-63
2022/06/07 13:19:45;;;;;;;4.07;1.93;;;19.70;1.00;;;;;;5074255;28;20209;-64
2022/06/07 13:22:15;;;;;;;3.87;1.80;;;19.50;1.00;;;;;;5074915;28;20259;-63